Time;durP1;ratioP1;P1;durP2;ratioP2;P2;SDS_P1;SDS_P2;PMS_P1;PMS_P2;Temp;Humidity;BMP_temperature;BMP_pressure;BME280_temperature;BME280_humidity;BME280_pressure;Samples;Min_cycle;Max_cycle;Signal;HPM_P1;HPM_P2
2023/06/08 00:01:49;;;;;;;1999.90;999.90;;;13.00;99.90;;;;;;5054193;28;20111;-72
2023/06/08 00:04:16;;;;;;;1999.90;999.90;;;13.00;99.90;;;;;;5057001;28;20021;-72
2023/06/08 00:06:44;;;;;;;1999.90;999.90;;;13.10;99.90;;;;;;5052650;28;20467;-72
2023/06/08 00:09:12;;;;;;;1999.90;999.90;;;13.10;99.90;;;;;;5061709;28;20029;-71
2023/06/08 00:11:39;;;;;;;1999.90;999.90;;;13.10;99.90;;;;;;5051621;28;20438;-71
2023/06/08 00:14:06;;;;;;;1999.90;999.90;;;13.20;99.90;;;;;;5055334;28;20803;-71
2023/06/08 00:16:38;;;;;;;1999.90;999.90;;;13.20;99.90;;;;;;5055085;28;20020;-72
2023/06/08 00:19:07;;;;;;;1999.90;999.90;;;13.20;99.90;;;;;;5049125;28;20499;-74
2023/06/08 00:21:36;;;;;;;1999.90;999.90;;;13.20;99.90;;;;;;5046633;28;20021;-73
2023/06/08 00:24:04;;;;;;;1999.90;999.90;;;13.30;99.90;;;;;;5048598;28;20076;-73
2023/06/08 00:26:31;;;;;;;1999.90;999.90;;;13.40;99.90;;;;;;5049397;28;20025;-72
2023/06/08 00:28:58;;;;;;;1999.90;999.90;;;13.40;99.90;;;;;;5049348;28;20442;-71
2023/06/08 00:31:26;;;;;;;1999.90;999.90;;;13.50;99.90;;;;;;5049368;28;20025;-73
2023/06/08 00:33:53;;;;;;;1999.90;999.90;;;13.60;99.90;;;;;;5061866;28;20021;-75
2023/06/08 00:36:24;;;;;;;1999.90;999.90;;;13.70;99.90;;;;;;5050394;28;20021;-72
2023/06/08 00:38:51;;;;;;;1999.90;999.90;;;13.80;99.90;;;;;;5060263;28;20045;-73
2023/06/08 00:41:18;;;;;;;1999.90;999.90;;;14.00;99.90;;;;;;5052340;28;20378;-70
2023/06/08 00:43:46;;;;;;;1999.90;999.90;;;14.20;99.90;;;;;;5056808;28;20131;-69
2023/06/08 00:46:18;;;;;;;1999.90;999.90;;;14.40;99.90;;;;;;5051827;28;20519;-70
2023/06/08 00:48:46;;;;;;;1999.90;999.90;;;14.50;99.90;;;;;;5044727;28;20070;-70
2023/06/08 00:51:16;;;;;;;1999.90;999.90;;;14.80;99.90;;;;;;5048532;28;20044;-70
2023/06/08 00:53:43;;;;;;;1999.90;999.90;;;15.10;99.90;;;;;;5055594;28;20020;-70
2023/06/08 00:56:11;;;;;;;1999.90;999.90;;;15.70;99.90;;;;;;5061389;28;20067;-71
2023/06/08 00:58:39;;;;;;;1999.90;999.90;;;16.80;99.90;;;;;;5061909;28;20162;-70
2023/06/08 01:01:11;;;;;;;1999.90;999.90;;;18.30;99.90;;;;;;5053757;28;20056;-70
2023/06/08 01:03:38;;;;;;;1999.90;999.90;;;19.20;99.90;;;;;;5055025;28;20095;-71
2023/06/08 01:06:08;;;;;;;1999.90;999.90;;;19.80;99.90;;;;;;5052471;28;20146;-70
2023/06/08 01:09:14;;;;;;;1999.90;999.90;;;19.60;99.90;;;;;;5055587;28;20621;-69
2023/06/08 01:12:05;;;;;;;1999.90;999.90;;;19.00;99.90;;;;;;5055002;28;20442;-70
2023/06/08 01:15:06;;;;;;;1999.90;999.90;;;18.50;99.90;;;;;;5059909;28;20891;-71
2023/06/08 01:17:40;;;;;;;1999.90;999.90;;;18.20;99.90;;;;;;5049917;28;20035;-70
2023/06/08 01:20:24;;;;;;;1999.90;999.90;;;18.00;99.90;;;;;;5055697;28;20025;-71
2023/06/08 01:22:57;;;;;;;1999.90;999.90;;;17.80;99.90;;;;;;5051197;28;20236;-73
2023/06/08 01:25:32;;;;;;;1999.90;999.90;;;17.50;99.90;;;;;;5059524;28;20052;-72
2023/06/08 01:28:15;;;;;;;1999.90;999.90;;;17.40;99.90;;;;;;5053482;28;20119;-73
2023/06/08 01:30:45;;;;;;;1999.90;999.90;;;17.20;99.90;;;;;;5057846;28;20033;-73
2023/06/08 01:33:22;;;;;;;1999.90;999.90;;;17.10;99.90;;;;;;5059353;28;20111;-73
2023/06/08 01:36:14;;;;;;;1999.90;999.90;;;17.10;99.90;;;;;;5060284;28;20073;-71
2023/06/08 01:39:15;;;;;;;1999.90;999.90;;;17.00;99.90;;;;;;5070010;28;20090;-73
2023/06/08 01:41:47;;;;;;;1999.90;999.90;;;17.00;99.90;;;;;;5062552;28;20075;-73
2023/06/08 01:44:19;;;;;;;1999.90;999.90;;;17.00;99.90;;;;;;5053451;28;20036;-70
2023/06/08 01:46:59;;;;;;;1999.90;999.90;;;17.00;99.90;;;;;;5052109;28;20029;-71
2023/06/08 01:49:30;;;;;;;1999.90;999.90;;;17.00;99.90;;;;;;5058418;28;20021;-71
2023/06/08 01:51:58;;;;;;;1999.90;999.90;;;17.10;99.90;;;;;;5064444;28;20787;-71
2023/06/08 01:54:25;;;;;;;1999.90;999.90;;;17.10;99.90;;;;;;5056543;28;20033;-71
2023/06/08 01:56:53;;;;;;;1999.90;999.90;;;17.10;99.90;;;;;;5060470;28;20116;-71
2023/06/08 01:59:22;;;;;;;1999.90;999.90;;;17.20;99.90;;;;;;5054920;28;20528;-71
2023/06/08 02:01:50;;;;;;;1999.90;999.90;;;17.20;99.90;;;;;;5052681;28;20049;-73
2023/06/08 02:04:17;;;;;;;1999.90;999.90;;;17.30;99.90;;;;;;5053017;28;20043;-72
2023/06/08 02:06:44;;;;;;;1999.90;999.90;;;17.30;99.90;;;;;;5044493;28;20021;-71
2023/06/08 02:09:12;;;;;;;1999.90;999.90;;;17.30;99.90;;;;;;5055406;28;20084;-71
2023/06/08 02:11:39;;;;;;;1999.90;999.90;;;17.30;99.90;;;;;;5049690;28;20021;-71
2023/06/08 02:14:06;;;;;;;1999.90;999.90;;;17.30;99.90;;;;;;5049667;28;20033;-71
2023/06/08 02:16:34;;;;;;;1999.90;999.90;;;17.20;99.90;;;;;;5056312;28;20021;-70
2023/06/08 02:19:03;;;;;;;1999.90;999.90;;;17.20;99.90;;;;;;5064487;28;20041;-71
2023/06/08 02:21:30;;;;;;;1999.90;999.90;;;17.20;99.90;;;;;;5055058;28;20020;-72
2023/06/08 02:23:57;;;;;;;1999.90;999.90;;;17.30;99.90;;;;;;5060533;28;20036;-70
2023/06/08 02:26:25;;;;;;;1999.90;999.90;;;17.30;99.90;;;;;;5052823;28;20032;-72
2023/06/08 02:28:53;;;;;;;1999.90;999.90;;;17.40;99.90;;;;;;5064988;28;20029;-73
2023/06/08 02:31:21;;;;;;;1999.90;999.90;;;17.40;99.90;;;;;;5058426;28;21216;-71
2023/06/08 02:33:48;;;;;;;1999.90;999.90;;;17.40;99.90;;;;;;5060953;28;20198;-71
2023/06/08 02:36:17;;;;;;;1999.90;999.90;;;17.40;99.90;;;;;;5050390;28;20033;-72
2023/06/08 02:38:44;;;;;;;1999.90;999.90;;;17.30;99.90;;;;;;5064669;28;20391;-74
2023/06/08 02:41:11;;;;;;;1999.90;999.90;;;17.30;99.90;;;;;;5056060;28;20069;-72
2023/06/08 02:43:39;;;;;;;1999.90;999.90;;;17.20;99.90;;;;;;5060749;28;20858;-70
2023/06/08 02:46:06;;;;;;;1999.90;999.90;;;17.20;99.90;;;;;;5057317;28;20021;-70
2023/06/08 02:48:33;;;;;;;1999.90;999.90;;;17.20;99.90;;;;;;5057327;28;20033;-70
2023/06/08 02:51:01;;;;;;;1999.90;999.90;;;17.10;99.90;;;;;;5066669;28;20028;-71
2023/06/08 02:53:28;;;;;;;1999.90;999.90;;;16.90;99.90;;;;;;5065229;28;20070;-71
2023/06/08 02:55:55;;;;;;;1999.90;999.90;;;16.80;99.90;;;;;;5064323;28;20119;-71
2023/06/08 02:58:24;;;;;;;1999.90;999.90;;;16.80;99.90;;;;;;5062014;28;20062;-71
2023/06/08 03:00:54;;;;;;;1999.90;999.90;;;16.70;99.90;;;;;;5058894;28;20056;-71
2023/06/08 03:03:23;;;;;;;1999.90;999.90;;;16.70;99.90;;;;;;5057236;28;20041;-72
2023/06/08 03:05:58;;;;;;;1999.90;999.90;;;16.60;99.90;;;;;;5055759;28;20025;-72
2023/06/08 03:08:27;;;;;;;1999.90;999.90;;;16.50;99.90;;;;;;5050890;28;20021;-70
2023/06/08 03:10:54;;;;;;;1999.90;999.90;;;16.40;99.90;;;;;;5056893;28;20106;-71
2023/06/08 03:13:22;;;;;;;1999.90;999.90;;;16.30;99.90;;;;;;5055392;28;20025;-72
2023/06/08 03:15:52;;;;;;;1999.90;999.90;;;16.30;99.90;;;;;;5059877;28;20027;-71
2023/06/08 03:18:20;;;;;;;1999.90;999.90;;;16.20;99.90;;;;;;5057522;28;20029;-72
2023/06/08 03:20:47;;;;;;;1999.90;999.90;;;16.20;99.90;;;;;;5057757;28;20021;-72
2023/06/08 03:23:15;;;;;;;1999.90;999.90;;;16.20;99.90;;;;;;5056666;28;20139;-72
2023/06/08 03:25:44;;;;;;;1999.90;999.90;;;16.10;99.90;;;;;;5055437;28;20036;-74
2023/06/08 03:28:12;;;;;;;1999.90;999.90;;;16.20;99.90;;;;;;5050245;28;20024;-72
2023/06/08 03:30:39;;;;;;;1999.90;999.90;;;16.20;99.90;;;;;;5058232;28;20024;-71
2023/06/08 03:33:07;;;;;;;1999.90;999.90;;;16.10;99.90;;;;;;5064221;28;20100;-72
2023/06/08 03:35:34;;;;;;;1999.90;999.90;;;16.10;99.90;;;;;;5058305;28;20085;-71
2023/06/08 03:38:01;;;;;;;1999.90;999.90;;;16.10;99.90;;;;;;5056098;28;20025;-71
2023/06/08 03:40:29;;;;;;;1999.90;999.90;;;16.10;99.90;;;;;;5055200;28;20147;-72
2023/06/08 03:42:56;;;;;;;1999.90;999.90;;;16.10;99.90;;;;;;5054514;28;20032;-71
2023/06/08 03:45:23;;;;;;;1999.90;999.90;;;16.10;99.90;;;;;;5057540;28;20033;-70
2023/06/08 03:47:51;;;;;;;1999.90;999.90;;;16.00;99.90;;;;;;5050428;28;20025;-71
2023/06/08 03:50:18;;;;;;;1999.90;999.90;;;16.00;99.90;;;;;;5059065;28;20033;-71
2023/06/08 03:52:45;;;;;;;1999.90;999.90;;;16.00;99.90;;;;;;5041908;28;20024;-72
2023/06/08 03:55:13;;;;;;;1999.90;999.90;;;15.90;99.90;;;;;;5053464;28;20033;-72
2023/06/08 03:57:40;;;;;;;1999.90;999.90;;;15.90;99.90;;;;;;5050364;28;20025;-72
2023/06/08 04:00:11;;;;;;;1999.90;999.90;;;15.90;99.90;;;;;;5054848;28;20028;-71
2023/06/08 04:02:41;;;;;;;1999.90;999.90;;;15.90;99.90;;;;;;5052370;28;20048;-72
2023/06/08 04:05:09;;;;;;;1999.90;999.90;;;15.90;99.90;;;;;;5051932;28;20033;-72
2023/06/08 04:07:37;;;;;;;1999.90;999.90;;;15.90;99.90;;;;;;5048510;28;20578;-71
2023/06/08 04:10:04;;;;;;;1999.90;999.90;;;15.90;99.90;;;;;;5051441;28;20380;-73
2023/06/08 04:12:34;;;;;;;1999.90;999.90;;;15.90;99.90;;;;;;5051276;28;20028;-72
2023/06/08 04:15:02;;;;;;;1999.90;999.90;;;15.90;99.90;;;;;;5054685;28;20433;-71
2023/06/08 04:17:29;;;;;;;1999.90;999.90;;;15.80;99.90;;;;;;5052497;28;20024;-72
2023/06/08 04:19:56;;;;;;;1999.90;999.90;;;15.80;99.90;;;;;;5055578;28;20021;-71
2023/06/08 04:22:23;;;;;;;1999.90;999.90;;;15.70;99.90;;;;;;5055183;28;20037;-73
2023/06/08 04:24:51;;;;;;;1999.90;999.90;;;15.70;99.90;;;;;;5057503;28;20020;-71
2023/06/08 04:27:19;;;;;;;1999.90;999.90;;;15.60;99.90;;;;;;5052676;28;20063;-71
2023/06/08 04:29:46;;;;;;;1999.90;999.90;;;15.60;99.90;;;;;;5062343;28;20426;-70
2023/06/08 04:32:13;;;;;;;1999.90;999.90;;;15.50;99.90;;;;;;5059101;28;20454;-72
2023/06/08 04:34:41;;;;;;;1999.90;999.90;;;15.50;99.90;;;;;;5056936;28;20040;-70
2023/06/08 04:37:08;;;;;;;1999.90;999.90;;;15.50;99.90;;;;;;5057293;28;20033;-70
2023/06/08 04:39:35;;;;;;;1999.90;999.90;;;15.40;99.90;;;;;;5056605;28;20032;-72
2023/06/08 04:42:03;;;;;;;1999.90;999.90;;;15.40;99.90;;;;;;5059905;28;20033;-71
2023/06/08 04:44:31;;;;;;;1999.90;999.90;;;15.40;99.90;;;;;;5061186;28;20028;-72
2023/06/08 04:46:59;;;;;;;1999.90;999.90;;;15.40;99.90;;;;;;5055349;28;20035;-70
2023/06/08 04:49:31;;;;;;;1999.90;999.90;;;15.40;99.90;;;;;;5055374;28;20419;-71
2023/06/08 04:52:01;;;;;;;1999.90;999.90;;;15.40;99.90;;;;;;5058249;28;20075;-72
2023/06/08 04:54:29;;;;;;;1999.90;999.90;;;15.40;99.90;;;;;;5054476;28;20078;-69
2023/06/08 04:56:59;;;;;;;1999.90;999.90;;;15.40;99.90;;;;;;5057382;28;20083;-70
2023/06/08 04:59:27;;;;;;;1999.90;999.90;;;15.40;99.90;;;;;;5054407;28;20017;-70
2023/06/08 05:01:55;;;;;;;1999.90;999.90;;;15.50;99.90;;;;;;5053705;28;20048;-70
2023/06/08 05:04:25;;;;;;;1999.90;999.90;;;15.40;99.90;;;;;;5056372;28;20025;-71
2023/06/08 05:06:52;;;;;;;1999.90;999.90;;;15.50;99.90;;;;;;5061512;28;20644;-71
2023/06/08 05:09:19;;;;;;;1999.90;999.90;;;15.50;99.90;;;;;;5053271;28;20399;-71
2023/06/08 05:11:47;;;;;;;1999.90;999.90;;;15.50;99.90;;;;;;5048233;28;20434;-70
2023/06/08 05:14:14;;;;;;;1999.90;999.90;;;15.60;99.90;;;;;;5059857;28;20049;-72
2023/06/08 05:16:41;;;;;;;1999.90;999.90;;;15.60;99.90;;;;;;5051541;28;20395;-71
2023/06/08 05:19:11;;;;;;;1999.90;999.90;;;15.60;99.90;;;;;;5053962;28;20065;-71
2023/06/08 05:21:39;;;;;;;1999.90;999.90;;;15.50;99.90;;;;;;5042987;28;20033;-73
2023/06/08 05:24:07;;;;;;;1999.90;999.90;;;15.50;99.90;;;;;;5050355;28;20032;-73
2023/06/08 05:26:35;;;;;;;1999.90;999.90;;;15.50;99.90;;;;;;5056464;28;20108;-72
2023/06/08 05:29:02;;;;;;;1999.90;999.90;;;15.50;99.90;;;;;;5051642;28;20033;-73
2023/06/08 05:31:29;;;;;;;1999.90;999.90;;;15.60;99.90;;;;;;5054692;28;20025;-73
2023/06/08 05:33:57;;;;;;;1999.90;999.90;;;15.60;99.90;;;;;;5064839;28;20087;-73
2023/06/08 05:36:24;;;;;;;1999.90;999.90;;;15.50;99.90;;;;;;5054688;28;20037;-74
2023/06/08 05:38:51;;;;;;;1999.90;999.90;;;15.50;99.90;;;;;;5060610;28;20025;-73
2023/06/08 05:41:19;;;;;;;1999.90;999.90;;;15.50;99.90;;;;;;5059975;28;20396;-73
2023/06/08 05:43:46;;;;;;;1999.90;999.90;;;15.50;99.90;;;;;;5058291;28;20047;-73
2023/06/08 05:46:15;;;;;;;1999.90;999.90;;;15.50;99.90;;;;;;5059816;28;20025;-73
2023/06/08 05:48:42;;;;;;;1999.90;999.90;;;15.50;99.90;;;;;;5055506;28;20090;-72
2023/06/08 05:51:09;;;;;;;1999.90;999.90;;;15.50;99.90;;;;;;5050305;28;20025;-72
2023/06/08 05:53:38;;;;;;;1999.90;999.90;;;15.40;99.90;;;;;;5072532;28;20095;-73
2023/06/08 05:56:06;;;;;;;1999.90;999.90;;;15.40;99.90;;;;;;5059663;28;20017;-73
2023/06/08 05:58:33;;;;;;;1999.90;999.90;;;15.40;99.90;;;;;;5056754;28;20036;-73
2023/06/08 06:01:04;;;;;;;1999.90;999.90;;;15.40;99.90;;;;;;5048882;28;20116;-74
2023/06/08 06:03:31;;;;;;;1999.90;999.90;;;15.40;99.90;;;;;;5054923;28;20125;-73
2023/06/08 06:05:59;;;;;;;1999.90;999.90;;;15.30;99.90;;;;;;5054078;28;20057;-72
2023/06/08 06:08:26;;;;;;;1999.90;999.90;;;15.30;99.90;;;;;;5052113;28;20036;-72
2023/06/08 06:10:54;;;;;;;1999.90;999.90;;;15.30;99.90;;;;;;5047185;28;20117;-71
2023/06/08 06:13:21;;;;;;;1999.90;999.90;;;15.30;99.90;;;;;;5055192;28;20087;-72
2023/06/08 06:15:49;;;;;;;1999.90;999.90;;;15.20;99.90;;;;;;5052347;28;20115;-72
2023/06/08 06:18:17;;;;;;;1999.90;999.90;;;15.30;99.90;;;;;;5056369;28;20439;-72
2023/06/08 06:20:44;;;;;;;1999.90;999.90;;;15.30;99.90;;;;;;5054240;28;20060;-72
2023/06/08 06:23:11;;;;;;;1999.90;999.90;;;15.40;99.90;;;;;;5053975;28;20496;-72
2023/06/08 06:25:39;;;;;;;1999.90;999.90;;;15.50;99.90;;;;;;5052905;28;20411;-71
2023/06/08 06:28:06;;;;;;;1999.90;999.90;;;15.40;99.90;;;;;;5054833;28;20115;-74
2023/06/08 06:30:33;;;;;;;1999.90;999.90;;;15.40;99.90;;;;;;5060761;28;20029;-73
2023/06/08 06:33:01;;;;;;;1999.90;999.90;;;15.40;99.90;;;;;;5058845;28;20078;-73
2023/06/08 06:35:28;;;;;;;1999.90;999.90;;;15.40;99.90;;;;;;5059807;28;20391;-73
2023/06/08 06:37:55;;;;;;;1999.90;999.90;;;15.40;99.90;;;;;;5058714;28;20032;-73
2023/06/08 06:40:23;;;;;;;1999.90;999.90;;;15.40;99.90;;;;;;5060713;28;20426;-72
2023/06/08 06:42:50;;;;;;;1999.90;999.90;;;15.40;99.90;;;;;;5062396;28;20029;-72
2023/06/08 06:45:17;;;;;;;1999.90;999.90;;;15.50;99.90;;;;;;5058943;28;20423;-73
2023/06/08 06:47:45;;;;;;;1999.90;999.90;;;15.50;99.90;;;;;;5057120;28;20029;-73
2023/06/08 06:50:12;;;;;;;1999.90;999.90;;;15.50;99.90;;;;;;5062455;28;20033;-71
2023/06/08 06:52:39;;;;;;;1999.90;999.90;;;15.40;99.90;;;;;;5053931;28;20029;-73
2023/06/08 06:55:07;;;;;;;1999.90;999.90;;;15.40;99.90;;;;;;5061287;28;20028;-74
2023/06/08 06:57:35;;;;;;;1999.90;999.90;;;15.40;99.90;;;;;;5054749;28;20029;-73
2023/06/08 07:00:08;;;;;;;1999.90;999.90;;;15.40;99.90;;;;;;5066794;28;20036;-73
2023/06/08 07:02:37;;;;;;;1999.90;999.90;;;15.40;99.90;;;;;;5052587;28;20052;-73
2023/06/08 07:05:08;;;;;;;1999.90;999.90;;;15.40;99.90;;;;;;5051197;28;20036;-73
2023/06/08 07:07:36;;;;;;;1999.90;999.90;;;15.30;99.90;;;;;;5051399;28;20470;-72
2023/06/08 07:10:04;;;;;;;1999.90;999.90;;;15.20;99.90;;;;;;5057299;28;20048;-74
2023/06/08 07:12:32;;;;;;;1999.90;999.90;;;15.20;99.90;;;;;;5059516;28;20045;-74
2023/06/08 07:14:59;;;;;;;1999.90;999.90;;;15.10;99.90;;;;;;5057805;28;20033;-73
2023/06/08 07:17:26;;;;;;;1999.90;999.90;;;14.90;99.90;;;;;;5054283;28;20051;-74
2023/06/08 07:19:54;;;;;;;1999.90;999.90;;;14.90;99.90;;;;;;5056266;28;20523;-74
2023/06/08 07:22:21;;;;;;;1999.90;999.90;;;14.80;99.90;;;;;;5051493;28;20395;-71
2023/06/08 07:24:48;;;;;;;1999.90;999.90;;;14.70;99.90;;;;;;5060660;28;20040;-74
2023/06/08 07:27:16;;;;;;;1999.90;999.90;;;14.70;99.90;;;;;;5058910;28;20028;-73
2023/06/08 07:29:43;;;;;;;1999.90;999.90;;;14.60;99.90;;;;;;5059663;28;20055;-73
2023/06/08 07:32:11;;;;;;;1999.90;999.90;;;14.60;99.90;;;;;;5060364;28;20075;-73
2023/06/08 07:34:39;;;;;;;1999.90;999.90;;;14.50;99.90;;;;;;5059481;28;20459;-74
2023/06/08 07:37:06;;;;;;;1999.90;999.90;;;14.50;99.90;;;;;;5056429;28;20158;-73
2023/06/08 07:39:34;;;;;;;1999.90;999.90;;;14.40;99.90;;;;;;5056189;28;20028;-76
2023/06/08 07:42:02;;;;;;;1999.90;999.90;;;14.30;99.90;;;;;;5065037;28;20032;-74
2023/06/08 07:44:30;;;;;;;1999.90;999.90;;;14.30;99.90;;;;;;5066249;28;20087;-74
2023/06/08 07:46:57;;;;;;;1999.90;999.90;;;14.30;99.90;;;;;;5057666;28;20375;-73
2023/06/08 07:49:24;;;;;;;1999.90;999.90;;;14.30;99.90;;;;;;5057185;28;20033;-73
2023/06/08 07:51:52;;;;;;;1999.90;999.90;;;14.20;99.90;;;;;;5054384;28;20151;-74
2023/06/08 07:54:19;;;;;;;1999.90;999.90;;;14.30;99.90;;;;;;5063228;28;20170;-73
2023/06/08 07:56:47;;;;;;;1999.90;999.90;;;14.30;99.90;;;;;;5055967;28;20108;-72
2023/06/08 07:59:15;;;;;;;1999.90;999.90;;;14.30;99.90;;;;;;5056774;28;20513;-72
2023/06/08 08:01:44;;;;;;;1999.90;999.90;;;14.30;99.90;;;;;;5055512;28;20044;-74
2023/06/08 08:04:11;;;;;;;1999.90;999.90;;;14.30;99.90;;;;;;5058249;28;20408;-74
2023/06/08 08:06:38;;;;;;;1999.90;999.90;;;14.10;99.90;;;;;;5051807;28;20029;-76
2023/06/08 08:09:06;;;;;;;1999.90;999.90;;;14.00;99.90;;;;;;5056939;28;20029;-72
2023/06/08 08:11:34;;;;;;;1999.90;999.90;;;14.00;99.90;;;;;;5059779;28;20136;-74
2023/06/08 08:14:01;;;;;;;1999.90;999.90;;;13.90;99.90;;;;;;5064375;28;20044;-75
2023/06/08 08:16:29;;;;;;;1999.90;999.90;;;13.90;99.90;;;;;;5053452;28;20031;-73
2023/06/08 08:18:56;;;;;;;1999.90;999.90;;;13.90;99.90;;;;;;5053681;28;20024;-73
2023/06/08 08:21:24;;;;;;;1999.90;999.90;;;13.80;99.90;;;;;;5054826;28;20104;-75
2023/06/08 08:23:51;;;;;;;1999.90;999.90;;;13.80;99.90;;;;;;5059156;28;20047;-73
2023/06/08 08:26:21;;;;;;;1999.90;999.90;;;13.80;99.90;;;;;;5054760;28;20021;-74
2023/06/08 08:28:48;;;;;;;1999.90;999.90;;;13.80;99.90;;;;;;5060576;28;20082;-75
2023/06/08 08:31:16;;;;;;;1999.90;999.90;;;13.70;99.90;;;;;;5060606;28;20021;-72
2023/06/08 08:33:44;;;;;;;1999.90;999.90;;;13.60;99.90;;;;;;5050404;28;20360;-73
2023/06/08 08:36:11;;;;;;;1999.90;999.90;;;13.70;99.90;;;;;;5049486;28;20479;-75
2023/06/08 08:38:40;;;;;;;1999.90;999.90;;;13.70;99.90;;;;;;5053692;28;20029;-75
2023/06/08 08:41:10;;;;;;;1999.90;999.90;;;13.70;99.90;;;;;;5051611;28;20115;-73
2023/06/08 08:43:47;;;;;;;1999.90;999.90;;;13.60;99.90;;;;;;5051746;28;20052;-74
2023/06/08 08:46:16;;;;;;;1999.90;999.90;;;13.60;99.90;;;;;;5052309;28;20029;-75
2023/06/08 08:48:43;;;;;;;1999.90;999.90;;;13.50;99.90;;;;;;5053259;28;20067;-77
2023/06/08 08:51:18;;;;;;;1999.90;999.90;;;13.40;99.90;;;;;;5055946;28;20531;-75
2023/06/08 08:53:51;;;;;;;1999.90;999.90;;;13.30;99.90;;;;;;5054746;28;20049;-74
2023/06/08 08:56:22;;;;;;;1999.90;999.90;;;13.20;99.90;;;;;;5049560;28;20539;-75
2023/06/08 08:58:52;;;;;;;1999.90;999.90;;;13.10;99.90;;;;;;5051368;28;20476;-76
2023/06/08 09:01:20;;;;;;;1999.90;999.90;;;12.90;99.90;;;;;;5052909;28;20049;-77
2023/06/08 09:03:50;;;;;;;1999.90;999.90;;;12.80;99.90;;;;;;5055826;28;20049;-75
2023/06/08 09:06:17;;;;;;;1999.90;999.90;;;12.70;99.90;;;;;;5051763;28;20021;-74
2023/06/08 09:08:45;;;;;;;1999.90;999.90;;;12.60;99.90;;;;;;5057515;28;20028;-77
2023/06/08 09:11:12;;;;;;;1999.90;999.90;;;12.60;99.90;;;;;;5066422;28;20029;-74
2023/06/08 09:13:39;;;;;;;1999.90;999.90;;;12.50;99.90;;;;;;5064597;28;20040;-75
2023/06/08 09:16:19;;;;;;;1999.90;999.90;;;12.50;99.90;;;;;;5049076;28;20057;-74
2023/06/08 09:19:03;;;;;;;1999.90;999.90;;;12.60;99.90;;;;;;5059062;28;20078;-74
2023/06/08 09:21:32;;;;;;;1999.90;999.90;;;12.60;99.90;;;;;;5052287;28;20025;-76
2023/06/08 09:24:05;;;;;;;1999.90;999.90;;;12.50;99.90;;;;;;5061063;28;20108;-74
2023/06/08 09:26:33;;;;;;;1999.90;999.90;;;12.40;99.90;;;;;;5051827;28;20021;-75
2023/06/08 09:29:02;;;;;;;1999.90;999.90;;;12.30;99.90;;;;;;5061999;28;20104;-74
2023/06/08 09:31:30;;;;;;;1999.90;999.90;;;12.20;99.90;;;;;;5053270;28;20105;-74
2023/06/08 09:34:12;;;;;;;1999.90;999.90;;;12.10;99.90;;;;;;5057646;28;20029;-74
2023/06/08 09:36:40;;;;;;;1999.90;999.90;;;12.00;99.90;;;;;;5062689;28;20498;-76
2023/06/08 09:39:08;;;;;;;1999.90;999.90;;;11.90;99.90;;;;;;5058597;28;20041;-75
2023/06/08 09:41:39;;;;;;;1999.90;999.90;;;11.90;99.90;;;;;;5057475;28;20131;-75
2023/06/08 09:44:32;;;;;;;1999.90;999.90;;;11.80;99.90;;;;;;5064427;28;20045;-76
2023/06/08 09:47:00;;;;;;;1999.90;999.90;;;11.90;99.90;;;;;;5054353;28;20033;-76
2023/06/08 09:49:27;;;;;;;1999.90;999.90;;;12.00;99.90;;;;;;5054055;28;20693;-75
2023/06/08 09:51:56;;;;;;;1999.90;999.90;;;12.10;99.90;;;;;;5054374;28;20028;-72
2023/06/08 09:54:24;;;;;;;1999.90;999.90;;;12.10;99.90;;;;;;5057806;28;20552;-74
2023/06/08 09:57:01;;;;;;;1999.90;999.90;;;12.10;99.90;;;;;;5055624;28;20029;-73
2023/06/08 09:59:42;;;;;;;1999.90;999.90;;;12.10;99.90;;;;;;5063550;28;20036;-74
2023/06/08 10:02:41;;;;;;;1999.90;999.90;;;12.10;99.90;;;;;;5055186;28;20051;-73
2023/06/08 10:05:17;;;;;;;1999.90;999.90;;;12.10;99.90;;;;;;5061772;28;20545;-71
2023/06/08 10:07:47;;;;;;;1999.90;999.90;;;12.40;99.90;;;;;;5054850;28;20123;-73
2023/06/08 10:10:22;;;;;;;1999.90;999.90;;;12.50;99.90;;;;;;5057968;28;20033;-74
2023/06/08 10:12:51;;;;;;;1999.90;999.90;;;12.60;99.90;;;;;;5063117;28;20582;-73
2023/06/08 10:15:21;;;;;;;1999.90;999.90;;;12.80;99.90;;;;;;5053550;28;20665;-73
2023/06/08 10:17:50;;;;;;;1999.90;999.90;;;13.00;99.90;;;;;;5058520;28;20436;-73
2023/06/08 10:20:17;;;;;;;1999.90;999.90;;;13.10;99.90;;;;;;5064210;28;20078;-74
2023/06/08 10:22:45;;;;;;;1999.90;999.90;;;13.00;99.90;;;;;;5056626;28;20044;-76
2023/06/08 10:25:16;;;;;;;1999.90;999.90;;;12.90;99.90;;;;;;5053925;28;20032;-75
2023/06/08 10:27:53;;;;;;;1999.90;999.90;;;12.80;99.90;;;;;;5057546;28;20114;-72
2023/06/08 10:30:39;;;;;;;1999.90;999.90;;;12.70;99.90;;;;;;5061454;28;20029;-74
2023/06/08 10:33:18;;;;;;;1999.90;999.90;;;12.60;99.90;;;;;;5056305;28;20032;-72
2023/06/08 10:36:10;;;;;;;1999.90;999.90;;;12.70;99.90;;;;;;5060314;28;20507;-75
2023/06/08 10:38:59;;;;;;;1999.90;999.90;;;12.80;99.90;;;;;;5056070;28;20087;-73
2023/06/08 10:41:57;;;;;;;1999.90;999.90;;;12.80;99.90;;;;;;5051900;28;20013;-73
2023/06/08 10:44:33;;;;;;;1999.90;999.90;;;12.80;99.90;;;;;;5065067;28;20067;-75
2023/06/08 10:47:12;;;;;;;1999.90;999.90;;;12.70;99.90;;;;;;5047657;28;20451;-74
2023/06/08 10:49:44;;;;;;;1999.90;999.90;;;12.70;99.90;;;;;;5056808;28;20082;-75
2023/06/08 10:52:18;;;;;;;1999.90;999.90;;;12.70;99.90;;;;;;5048185;28;20231;-73
2023/06/08 10:55:11;;;;;;;1999.90;999.90;;;12.50;99.90;;;;;;5054036;28;20091;-74
2023/06/08 10:57:45;;;;;;;1999.90;999.90;;;12.30;99.90;;;;;;5064405;28;20029;-73
2023/06/08 11:00:29;;;;;;;1999.90;999.90;;;12.10;99.90;;;;;;5062008;28;20514;-74
2023/06/08 11:03:06;;;;;;;1999.90;999.90;;;12.00;99.90;;;;;;5048193;28;20120;-71
2023/06/08 11:05:36;;;;;;;1999.90;999.90;;;11.80;99.90;;;;;;5056315;28;20047;-75
2023/06/08 11:08:07;;;;;;;1999.90;999.90;;;11.60;99.90;;;;;;5048222;28;20386;-71
2023/06/08 11:10:37;;;;;;;1999.90;999.90;;;11.50;99.90;;;;;;5056076;28;20097;-71
2023/06/08 11:13:17;;;;;;;1999.90;999.90;;;11.40;99.90;;;;;;5064573;28;20092;-69
2023/06/08 11:15:47;;;;;;;1999.90;999.90;;;11.30;99.90;;;;;;5054934;28;20385;-73
2023/06/08 11:18:18;;;;;;;1999.90;999.90;;;11.20;99.90;;;;;;5051741;28;20037;-72
2023/06/08 11:20:46;;;;;;;1999.90;999.90;;;11.00;99.90;;;;;;5052074;28;20021;-72
2023/06/08 11:23:14;;;;;;;1999.90;999.90;;;10.90;99.90;;;;;;5059373;28;20585;-71
2023/06/08 11:25:46;;;;;;;1999.90;999.90;;;10.90;99.90;;;;;;5055297;28;20021;-70
2023/06/08 11:28:14;;;;;;;1999.90;999.90;;;10.80;99.90;;;;;;5052609;28;20036;-72
2023/06/08 11:30:41;;;;;;;1999.90;999.90;;;10.70;99.90;;;;;;5059819;28;20017;-72
2023/06/08 11:33:17;;;;;;;1999.90;999.90;;;10.70;99.90;;;;;;5055942;28;20028;-71
2023/06/08 11:35:44;;;;;;;1999.90;999.90;;;10.70;99.90;;;;;;5061280;28;20460;-73
2023/06/08 11:38:12;;;;;;;1999.90;999.90;;;10.80;99.90;;;;;;5060299;28;20032;-70
2023/06/08 11:40:41;;;;;;;1999.90;999.90;;;11.00;99.90;;;;;;5057007;28;20025;-73
2023/06/08 11:43:11;;;;;;;1999.90;999.90;;;11.30;99.90;;;;;;5061745;28;20040;-71
2023/06/08 11:45:39;;;;;;;1999.90;999.90;;;11.60;99.90;;;;;;5057824;28;20041;-73
2023/06/08 11:48:07;;;;;;;1999.90;999.90;;;11.80;99.90;;;;;;5060004;28;20514;-71
2023/06/08 11:50:34;;;;;;;1999.90;999.90;;;11.80;99.90;;;;;;5066054;28;20028;-72
2023/06/08 11:53:04;;;;;;;1999.90;999.90;;;11.80;99.90;;;;;;5058951;28;20094;-73
2023/06/08 11:55:35;;;;;;;1999.90;999.90;;;11.80;99.90;;;;;;5058846;28;20111;-72
2023/06/08 11:58:07;;;;;;;1999.90;999.90;;;11.70;99.90;;;;;;5057431;28;20029;-71
2023/06/08 12:00:35;;;;;;;1999.90;999.90;;;11.70;99.90;;;;;;5058752;28;20099;-71
2023/06/08 12:03:03;;;;;;;1999.90;999.90;;;11.70;99.90;;;;;;5059338;28;20433;-70
2023/06/08 12:05:35;;;;;;;1999.90;999.90;;;11.70;99.90;;;;;;5054146;28;20040;-71
2023/06/08 12:08:15;;;;;;;1999.90;999.90;;;11.60;99.90;;;;;;5055066;28;20040;-72
2023/06/08 12:10:46;;;;;;;1999.90;999.90;;;11.60;99.90;;;;;;5052909;28;20013;-71
2023/06/08 12:13:15;;;;;;;1999.90;999.90;;;11.50;99.90;;;;;;5054203;28;20116;-73